MDLR/LRM METAR and TAF weather

Enter ICAO airport designator
Station Type Date Time Source
MDLR METAR 2020/09/22 03:00 UTC NOAA

MDLR 220300Z 00000KT 9999 FEW017 23/23 Q1012


Station Type Date Time Source
MDLR Decoded METAR 2020/09/22 03:00 UTC NOAA

La Romana International Airport, Dominican Republic (MDLR) 18-25N 068-57W
Sep 21, 2020 - 11:00 PM EDT / 2020.09.22 0300 UTC
Wind: Calm:0
Visibility: greater than 7 mile(s):0
Sky conditions: mostly clear
Temperature: 73 F (23 C)
Dew Point: 73 F (23 C)
Relative Humidity: 100%
Pressure (altimeter): 29.88 in. Hg (1012 hPa)
ob: MDLR 220300Z 00000KT 9999 FEW017 23/23 Q1012
cycle: 3

Station Type Date Time Source
MDLR TAF 2020/09/22 06:34 UTC NOAA

TAF MDLR 220400Z 2206/2306 23006KT 9999 SCT016 BKN300
BECMG 2209/2211 00000KT

Example: see airport list